Time;durP1;ratioP1;P1;durP2;ratioP2;P2;SDS_P1;SDS_P2;PMS_P1;PMS_P2;Temp;Humidity;BMP_temperature;BMP_pressure;BME280_temperature;BME280_humidity;BME280_pressure;Samples;Min_cycle;Max_cycle;Signal;HPM_P1;HPM_P2
2023/04/10 00:00:42;;;;;;;28.60;16.60;;;;;;;;;;5001368;28;20046;-96
2023/04/10 00:03:09;;;;;;;26.35;16.38;;;;;;;;;;5003035;28;20136;-94
2023/04/10 00:05:36;;;;;;;30.67;18.55;;;;;;;;;;5000932;28;20050;-94
2023/04/10 00:08:04;;;;;;;27.02;16.42;;;;;;;;;;5000770;28;20057;-94
2023/04/10 00:10:32;;;;;;;26.70;15.98;;;;;;;;;;5000665;28;20145;-94
2023/04/10 00:12:59;;;;;;;25.60;16.48;;;;;;;;;;5000689;28;20126;-94
2023/04/10 00:15:27;;;;;;;25.48;16.67;;;;;;;;;;5000591;28;20046;-96
2023/04/10 00:17:55;;;;;;;27.95;17.80;;;;;;;;;;5000806;28;20068;-95
2023/04/10 00:20:25;;;;;;;30.27;18.52;;;;;;;;;;5000522;28;20053;-96
2023/04/10 00:22:52;;;;;;;28.83;17.38;;;;;;;;;;5000664;28;20054;-94
2023/04/10 00:25:21;;;;;;;29.77;17.05;;;;;;;;;;5000437;28;20137;-94
2023/04/10 00:27:49;;;;;;;26.60;17.23;;;;;;;;;;5000704;28;20057;-94
2023/04/10 00:30:16;;;;;;;30.98;18.33;;;;;;;;;;5000639;28;20054;-94
2023/04/10 00:32:43;;;;;;;29.10;16.92;;;;;;;;;;5000081;28;20060;-94
2023/04/10 00:35:10;;;;;;;27.10;17.10;;;;;;;;;;5000095;28;20050;-95
2023/04/10 00:37:38;;;;;;;26.90;16.98;;;;;;;;;;5000498;28;20068;-95
2023/04/10 00:40:05;;;;;;;30.67;17.90;;;;;;;;;;5000496;28;20429;-94
2023/04/10 00:42:33;;;;;;;29.45;17.27;;;;;;;;;;5000269;28;20064;-94
2023/04/10 00:45:00;;;;;;;29.60;18.63;;;;;;;;;;5000155;28;20054;-95
2023/04/10 00:47:27;;;;;;;28.65;18.25;;;;;;;;;;4999905;28;20557;-94
2023/04/10 00:49:55;;;;;;;31.25;17.92;;;;;;;;;;5000265;28;20053;-95
2023/04/10 00:52:22;;;;;;;29.45;17.20;;;;;;;;;;5000363;28;20045;-95
2023/04/10 00:54:49;;;;;;;30.35;17.20;;;;;;;;;;5000023;28;20153;-94
2023/04/10 00:57:17;;;;;;;27.23;17.48;;;;;;;;;;5002310;28;20508;-94
2023/04/10 00:59:44;;;;;;;28.90;17.45;;;;;;;;;;5010492;28;20046;-94
2023/04/10 01:02:11;;;;;;;28.15;17.70;;;;;;;;;;4998564;28;20129;-95
2023/04/10 01:04:39;;;;;;;27.27;18.60;;;;;;;;;;4999442;28;20443;-94
2023/04/10 01:07:21;;;;;;;27.98;17.40;;;;;;;;;;4999561;28;20060;-94
2023/04/10 01:10:09;;;;;;;31.00;17.58;;;;;;;;;;4999524;28;20046;-94
2023/04/10 01:12:53;;;;;;;33.95;18.08;;;;;;;;;;4990042;28;20125;-95
2023/04/10 01:15:22;;;;;;;26.75;16.80;;;;;;;;;;4999189;28;20069;-94
2023/04/10 01:17:59;;;;;;;27.63;16.73;;;;;;;;;;4999592;28;20042;-94
2023/04/10 01:20:28;;;;;;;29.60;16.52;;;;;;;;;;4999476;28;20057;-95
2023/04/10 01:23:15;;;;;;;27.60;17.70;;;;;;;;;;4999444;28;20137;-94
2023/04/10 01:25:45;;;;;;;29.10;16.20;;;;;;;;;;5013094;28;20054;-94
2023/04/10 01:28:19;;;;;;;27.33;17.50;;;;;;;;;;5001456;28;20132;-94
2023/04/10 01:30:51;;;;;;;35.08;18.33;;;;;;;;;;4999457;28;20388;-94
2023/04/10 01:33:20;;;;;;;29.85;17.83;;;;;;;;;;4998704;28;20472;-94
2023/04/10 01:35:52;;;;;;;36.28;18.98;;;;;;;;;;4999185;28;20057;-94
2023/04/10 01:38:21;;;;;;;31.70;18.85;;;;;;;;;;4999060;28;20060;-94
2023/04/10 01:40:51;;;;;;;32.90;18.35;;;;;;;;;;4998896;28;20054;-94
2023/04/10 01:43:19;;;;;;;32.17;17.67;;;;;;;;;;4998923;28;20052;-94
2023/04/10 01:45:47;;;;;;;28.40;17.98;;;;;;;;;;4999089;28;20058;-94
2023/04/10 01:48:16;;;;;;;33.35;19.55;;;;;;;;;;4998687;28;20052;-94
2023/04/10 01:50:45;;;;;;;27.92;16.65;;;;;;;;;;4998822;28;20046;-94
2023/04/10 01:53:12;;;;;;;30.15;17.65;;;;;;;;;;4998712;28;20046;-93
2023/04/10 01:55:40;;;;;;;26.83;16.15;;;;;;;;;;4998689;28;20049;-95
2023/04/10 01:58:08;;;;;;;31.20;18.20;;;;;;;;;;4998385;28;20048;-94
2023/04/10 02:00:42;;;;;;;26.42;17.45;;;;;;;;;;4998336;28;20061;-94
2023/04/10 02:03:10;;;;;;;31.33;17.00;;;;;;;;;;4998338;28;20077;-94
2023/04/10 02:05:56;;;;;;;24.77;16.30;;;;;;;;;;4998239;28;20103;-94
2023/04/10 02:08:34;;;;;;;29.40;17.58;;;;;;;;;;4998353;28;20140;-93
2023/04/10 02:11:02;;;;;;;28.83;17.63;;;;;;;;;;5001601;28;20064;-94
2023/04/10 02:13:30;;;;;;;26.13;16.90;;;;;;;;;;5003096;28;20065;-94
2023/04/10 02:15:59;;;;;;;27.50;17.63;;;;;;;;;;4998153;28;20049;-94
2023/04/10 02:18:31;;;;;;;38.65;20.88;;;;;;;;;;4998562;28;20065;-95
2023/04/10 02:20:58;;;;;;;38.22;21.48;;;;;;;;;;4997917;28;20053;-94
2023/04/10 02:23:26;;;;;;;33.67;19.63;;;;;;;;;;4997608;28;20417;-94
2023/04/10 02:25:55;;;;;;;32.10;19.83;;;;;;;;;;4997687;28;20415;-95
2023/04/10 02:28:23;;;;;;;37.97;20.30;;;;;;;;;;4997779;28;20058;-94
2023/04/10 02:30:50;;;;;;;31.25;19.02;;;;;;;;;;4997939;28;20054;-95
2023/04/10 02:33:17;;;;;;;37.10;20.52;;;;;;;;;;4997805;28;20072;-96
2023/04/10 02:35:44;;;;;;;37.97;20.48;;;;;;;;;;4997173;28;20057;-94
2023/04/10 02:38:11;;;;;;;36.28;19.90;;;;;;;;;;4997827;28;20116;-95
2023/04/10 02:40:41;;;;;;;34.50;19.38;;;;;;;;;;4997743;28;20120;-95
2023/04/10 02:43:08;;;;;;;32.30;18.52;;;;;;;;;;4997451;28;20048;-94
2023/04/10 02:45:35;;;;;;;31.63;18.10;;;;;;;;;;4997613;28;20057;-94
2023/04/10 02:48:05;;;;;;;32.97;19.98;;;;;;;;;;4997238;28;20054;-94
2023/04/10 02:50:32;;;;;;;37.17;20.23;;;;;;;;;;4997456;28;20076;-94
2023/04/10 02:53:00;;;;;;;35.75;19.30;;;;;;;;;;4997678;28;20145;-94
2023/04/10 02:55:27;;;;;;;37.03;20.98;;;;;;;;;;4997385;28;20414;-94
2023/04/10 02:57:54;;;;;;;36.63;19.52;;;;;;;;;;4997864;28;20062;-94
2023/04/10 03:00:22;;;;;;;30.77;18.50;;;;;;;;;;4997455;28;20068;-94
2023/04/10 03:02:49;;;;;;;29.77;17.77;;;;;;;;;;4997255;28;20050;-94
2023/04/10 03:05:17;;;;;;;29.80;18.05;;;;;;;;;;4997361;28;20409;-94
2023/04/10 03:07:44;;;;;;;31.50;18.70;;;;;;;;;;4997423;28;20570;-94
2023/04/10 03:10:11;;;;;;;28.52;17.15;;;;;;;;;;4998534;28;20046;-93
2023/04/10 03:12:38;;;;;;;31.40;18.33;;;;;;;;;;4997397;28;20133;-95
2023/04/10 03:15:06;;;;;;;32.75;19.73;;;;;;;;;;4996916;28;20050;-94
2023/04/10 03:17:34;;;;;;;34.28;20.45;;;;;;;;;;4997167;28;20049;-94
2023/04/10 03:20:01;;;;;;;43.80;22.38;;;;;;;;;;4998237;28;20061;-94
2023/04/10 03:22:31;;;;;;;40.80;21.85;;;;;;;;;;4997487;28;20078;-93
2023/04/10 03:24:58;;;;;;;38.60;21.02;;;;;;;;;;4999501;28;20120;-94
2023/04/10 03:27:25;;;;;;;36.30;21.05;;;;;;;;;;4997031;28;20429;-93
2023/04/10 03:29:53;;;;;;;34.88;20.92;;;;;;;;;;4997062;28;20045;-94
2023/04/10 03:32:20;;;;;;;37.05;20.52;;;;;;;;;;4997853;28;20129;-94
2023/04/10 03:34:47;;;;;;;37.33;20.92;;;;;;;;;;5002728;28;20068;-93
2023/04/10 03:37:15;;;;;;;30.83;19.75;;;;;;;;;;5018500;28;20069;-93
2023/04/10 03:39:42;;;;;;;30.42;18.73;;;;;;;;;;5004076;28;20076;-93
2023/04/10 03:42:10;;;;;;;32.17;19.52;;;;;;;;;;4996969;28;20060;-94
2023/04/10 03:44:37;;;;;;;31.23;19.20;;;;;;;;;;4997173;28;20053;-94
2023/04/10 03:47:04;;;;;;;31.35;18.20;;;;;;;;;;4997823;28;20050;-94
2023/04/10 03:49:32;;;;;;;32.22;18.55;;;;;;;;;;5000414;28;20061;-94
2023/04/10 03:51:59;;;;;;;33.30;18.80;;;;;;;;;;4997862;28;20485;-93
2023/04/10 03:54:27;;;;;;;31.92;18.58;;;;;;;;;;4999116;28;20073;-94
2023/04/10 03:56:55;;;;;;;30.42;18.40;;;;;;;;;;4998174;28;20058;-93
2023/04/10 03:59:22;;;;;;;31.65;18.65;;;;;;;;;;4999243;28;20069;-93
2023/04/10 04:02:03;;;;;;;30.40;17.83;;;;;;;;;;5002838;28;20046;-94
2023/04/10 04:04:30;;;;;;;33.08;19.10;;;;;;;;;;4998558;28;20077;-94
2023/04/10 04:06:58;;;;;;;36.17;20.50;;;;;;;;;;4998594;28;20603;-93
2023/04/10 04:09:25;;;;;;;51.20;24.98;;;;;;;;;;4999943;28;20054;-93
2023/04/10 04:11:52;;;;;;;36.75;20.55;;;;;;;;;;5001224;28;20046;-94
2023/04/10 04:14:19;;;;;;;35.92;21.05;;;;;;;;;;5002211;28;20052;-93
2023/04/10 04:16:47;;;;;;;37.20;20.20;;;;;;;;;;5003086;28;20092;-92
2023/04/10 04:19:17;;;;;;;39.40;20.05;;;;;;;;;;5005522;28;20116;-92
2023/04/10 04:21:45;;;;;;;31.17;18.92;;;;;;;;;;5007819;28;20084;-92
2023/04/10 04:24:13;;;;;;;34.38;19.27;;;;;;;;;;4991301;28;20050;-93
2023/04/10 04:26:41;;;;;;;34.75;19.65;;;;;;;;;;5008829;28;20058;-93
2023/04/10 04:29:08;;;;;;;34.13;19.20;;;;;;;;;;5009574;28;20049;-93
2023/04/10 04:31:36;;;;;;;31.55;19.38;;;;;;;;;;5008699;28;20471;-93
2023/04/10 04:34:04;;;;;;;39.53;23.13;;;;;;;;;;5008664;28;20062;-93
2023/04/10 04:36:32;;;;;;;36.47;20.67;;;;;;;;;;5010264;28;20180;-93
2023/04/10 04:39:00;;;;;;;39.22;19.95;;;;;;;;;;5016660;28;20113;-92
2023/04/10 04:41:31;;;;;;;35.55;20.95;;;;;;;;;;5014816;28;20058;-93
2023/04/10 04:44:01;;;;;;;33.45;19.80;;;;;;;;;;5017895;28;20054;-92
2023/04/10 04:46:38;;;;;;;39.67;20.67;;;;;;;;;;5035625;28;20049;-92
2023/04/10 04:49:10;;;;;;;33.97;19.38;;;;;;;;;;5017414;28;20050;-92
2023/04/10 04:51:38;;;;;;;31.55;20.05;;;;;;;;;;5017460;28;20089;-92
2023/04/10 04:54:10;;;;;;;34.33;19.30;;;;;;;;;;5017199;28;20133;-92
2023/04/10 04:56:40;;;;;;;37.40;20.35;;;;;;;;;;5034100;28;20073;-93
2023/04/10 04:59:11;;;;;;;38.90;21.13;;;;;;;;;;5002391;28;20061;-92
2023/04/10 05:01:40;;;;;;;39.75;21.77;;;;;;;;;;5017863;28;20053;-92
2023/04/10 05:04:07;;;;;;;40.28;22.73;;;;;;;;;;5001555;28;20056;-92
2023/04/10 05:06:37;;;;;;;41.63;22.80;;;;;;;;;;5016257;28;20053;-92
2023/04/10 05:09:04;;;;;;;38.80;22.27;;;;;;;;;;5000134;28;20061;-92
2023/04/10 05:11:33;;;;;;;46.90;22.92;;;;;;;;;;5016197;28;20049;-92
2023/04/10 05:14:00;;;;;;;40.05;22.63;;;;;;;;;;5014306;28;20054;-92
2023/04/10 05:16:28;;;;;;;49.45;23.75;;;;;;;;;;5014899;28;20054;-92
2023/04/10 05:18:56;;;;;;;52.58;24.65;;;;;;;;;;5031991;28;20064;-92
2023/04/10 05:21:26;;;;;;;52.05;25.83;;;;;;;;;;5015613;28;20073;-92
2023/04/10 05:23:55;;;;;;;60.80;28.77;;;;;;;;;;5014654;28;20054;-92
2023/04/10 05:26:24;;;;;;;90.20;34.38;;;;;;;;;;5033084;28;20060;-93
2023/04/10 05:28:55;;;;;;;1134.13;123.28;;;;;;;;;;5001458;28;20053;-93
2023/04/10 05:31:23;;;;;;;803.60;119.35;;;;;;;;;;5014541;28;20057;-93
2023/04/10 05:33:50;;;;;;;1999.90;258.10;;;;;;;;;;5014755;28;20046;-93
2023/04/10 05:36:18;;;;;;;1547.15;209.77;;;;;;;;;;5012331;28;20045;-93
2023/04/10 05:38:45;;;;;;;134.73;50.15;;;;;;;;;;5011337;28;20073;-93
2023/04/10 05:41:14;;;;;;;71.20;40.13;;;;;;;;;;4994649;28;20050;-93
2023/04/10 05:43:42;;;;;;;58.15;35.22;;;;;;;;;;5010489;28;20066;-93
2023/04/10 05:46:10;;;;;;;50.65;32.42;;;;;;;;;;5006145;28;20046;-94
2023/04/10 05:48:38;;;;;;;44.50;29.73;;;;;;;;;;5014435;28;20041;-92
2023/04/10 05:51:05;;;;;;;40.85;27.08;;;;;;;;;;5017374;28;20060;-92
2023/04/10 05:53:33;;;;;;;40.10;27.25;;;;;;;;;;5002584;28;20099;-93
2023/04/10 05:56:00;;;;;;;32.67;23.88;;;;;;;;;;4998651;28;20144;-93
2023/04/10 05:58:28;;;;;;;32.67;21.50;;;;;;;;;;4998717;28;20050;-93
2023/04/10 06:00:56;;;;;;;24.70;19.55;;;;;;;;;;4999199;28;20064;-93
2023/04/10 06:03:26;;;;;;;20.17;15.45;;;;;;;;;;4998725;28;20398;-94
2023/04/10 06:05:53;;;;;;;16.38;12.73;;;;;;;;;;4999026;28;20056;-94
2023/04/10 06:08:21;;;;;;;15.63;11.90;;;;;;;;;;4998451;28;20054;-94
2023/04/10 06:10:49;;;;;;;16.85;12.35;;;;;;;;;;4998480;28;20054;-93
2023/04/10 06:13:16;;;;;;;20.20;12.52;;;;;;;;;;4998555;28;20057;-94
2023/04/10 06:15:43;;;;;;;14.95;11.88;;;;;;;;;;4998164;28;20053;-93
2023/04/10 06:18:10;;;;;;;14.82;11.77;;;;;;;;;;4998509;28;20050;-93
2023/04/10 06:20:38;;;;;;;13.77;10.95;;;;;;;;;;4998696;28;20450;-94
2023/04/10 06:23:05;;;;;;;13.85;10.45;;;;;;;;;;4998470;28;20570;-94
2023/04/10 06:25:33;;;;;;;15.20;11.20;;;;;;;;;;4998411;28;20061;-95
2023/04/10 06:28:00;;;;;;;16.13;11.30;;;;;;;;;;4998259;28;20053;-95
2023/04/10 06:30:27;;;;;;;12.57;10.20;;;;;;;;;;4998554;28;20049;-96
2023/04/10 06:32:55;;;;;;;13.90;10.20;;;;;;;;;;4998202;28;20110;-95
2023/04/10 06:35:22;;;;;;;13.85;10.40;;;;;;;;;;4997943;28;20061;-95
2023/04/10 06:37:50;;;;;;;13.13;10.88;;;;;;;;;;4998385;28;20521;-95
2023/04/10 06:40:17;;;;;;;12.40;10.35;;;;;;;;;;4998309;28;20056;-95
2023/04/10 06:42:44;;;;;;;11.30;9.43;;;;;;;;;;4998159;28;20054;-95
2023/04/10 06:45:12;;;;;;;10.93;9.43;;;;;;;;;;4998432;28;20068;-95
2023/04/10 06:47:39;;;;;;;11.85;10.10;;;;;;;;;;4999017;28;20050;-96
2023/04/10 06:50:07;;;;;;;12.40;10.05;;;;;;;;;;4998984;28;20046;-95
2023/04/10 06:52:34;;;;;;;11.30;10.05;;;;;;;;;;4999696;28;20064;-95
2023/04/10 06:55:01;;;;;;;12.23;10.40;;;;;;;;;;5000647;28;20045;-95
2023/04/10 06:57:28;;;;;;;11.80;10.25;;;;;;;;;;5001379;28;20550;-95
2023/04/10 06:59:56;;;;;;;15.40;10.13;;;;;;;;;;5003989;28;20076;-96
2023/04/10 07:02:23;;;;;;;10.95;9.77;;;;;;;;;;5002556;28;20063;-95
2023/04/10 07:04:52;;;;;;;13.00;11.32;;;;;;;;;;5012427;28;20038;-95
2023/04/10 07:07:20;;;;;;;13.27;10.80;;;;;;;;;;5007053;28;20077;-95
2023/04/10 07:09:47;;;;;;;12.88;11.15;;;;;;;;;;5007539;28;20049;-95
2023/04/10 07:12:15;;;;;;;14.07;10.98;;;;;;;;;;5009372;28;20054;-95
2023/04/10 07:14:43;;;;;;;12.82;11.00;;;;;;;;;;5007766;28;20050;-95
2023/04/10 07:17:11;;;;;;;13.45;11.18;;;;;;;;;;5006279;28;20046;-94
2023/04/10 07:19:38;;;;;;;12.48;10.77;;;;;;;;;;5004542;28;20076;-95
2023/04/10 07:22:07;;;;;;;10.70;9.60;;;;;;;;;;5004932;28;20149;-95
2023/04/10 07:24:35;;;;;;;11.65;9.77;;;;;;;;;;5005214;28;20501;-95
2023/04/10 07:27:03;;;;;;;11.35;9.93;;;;;;;;;;5003007;28;20458;-95
2023/04/10 07:29:30;;;;;;;11.50;9.57;;;;;;;;;;5003963;28;20053;-95
2023/04/10 07:31:58;;;;;;;11.43;9.55;;;;;;;;;;5002717;28;20054;-94
2023/04/10 07:34:26;;;;;;;15.38;9.55;;;;;;;;;;5000655;28;20144;-95
2023/04/10 07:36:59;;;;;;;10.52;9.38;;;;;;;;;;5004691;28;20100;-95
2023/04/10 07:39:28;;;;;;;14.48;12.25;;;;;;;;;;5002064;28;20050;-94
2023/04/10 07:41:59;;;;;;;10.43;8.98;;;;;;;;;;5021281;28;20054;-94
2023/04/10 07:44:27;;;;;;;10.07;9.07;;;;;;;;;;5005601;28;20107;-95
2023/04/10 07:46:55;;;;;;;11.05;9.13;;;;;;;;;;5005729;28;20114;-95
2023/04/10 07:49:23;;;;;;;18.45;14.65;;;;;;;;;;5002229;28;20057;-94
2023/04/10 07:51:54;;;;;;;9.82;8.68;;;;;;;;;;5009415;28;20046;-95
2023/04/10 07:54:22;;;;;;;9.60;8.70;;;;;;;;;;5002476;28;20101;-93
2023/04/10 07:56:52;;;;;;;8.55;7.75;;;;;;;;;;5002637;28;20504;-93
2023/04/10 07:59:19;;;;;;;27.40;17.88;;;;;;;;;;5006427;28;20077;-94
2023/04/10 08:01:54;;;;;;;10.43;8.63;;;;;;;;;;5007765;28;20096;-94
2023/04/10 08:04:21;;;;;;;12.15;10.05;;;;;;;;;;4999745;28;20057;-91
2023/04/10 08:06:49;;;;;;;8.27;7.45;;;;;;;;;;4996930;28;20054;-90
2023/04/10 08:09:17;;;;;;;9.40;8.50;;;;;;;;;;4997251;28;20046;-92
2023/04/10 08:11:44;;;;;;;8.07;7.35;;;;;;;;;;5016215;28;20078;-91
2023/04/10 08:14:13;;;;;;;8.23;6.78;;;;;;;;;;5003875;28;20050;-92
2023/04/10 08:16:44;;;;;;;7.95;7.15;;;;;;;;;;5014934;28;20053;-90
2023/04/10 08:19:14;;;;;;;9.45;6.53;;;;;;;;;;5015731;28;20072;-91
2023/04/10 08:21:41;;;;;;;7.35;6.75;;;;;;;;;;5005106;28;20136;-95
2023/04/10 08:24:08;;;;;;;97.43;67.30;;;;;;;;;;5003026;28;20054;-91
2023/04/10 08:26:40;;;;;;;7.90;7.10;;;;;;;;;;5003564;28;20107;-91
2023/04/10 08:29:08;;;;;;;13.05;11.65;;;;;;;;;;5004043;28;20482;-93
2023/04/10 08:31:35;;;;;;;6.85;6.15;;;;;;;;;;5001732;28;20081;-92
2023/04/10 08:34:03;;;;;;;6.60;5.95;;;;;;;;;;5003118;28;20046;-92
2023/04/10 08:36:30;;;;;;;6.82;6.20;;;;;;;;;;5003153;28;20076;-92
2023/04/10 08:38:58;;;;;;;9.35;8.43;;;;;;;;;;5003506;28;20116;-92
2023/04/10 08:41:25;;;;;;;9.13;8.23;;;;;;;;;;5003085;28;20049;-92
2023/04/10 08:43:53;;;;;;;8.00;6.63;;;;;;;;;;5005514;28;20146;-92
2023/04/10 08:46:23;;;;;;;18.02;16.33;;;;;;;;;;5007312;28;20105;-92
2023/04/10 08:48:58;;;;;;;6.25;5.75;;;;;;;;;;5008742;28;20038;-92
2023/04/10 08:51:45;;;;;;;7.28;6.68;;;;;;;;;;5011013;28;20072;-92
2023/04/10 08:54:25;;;;;;;5.78;5.35;;;;;;;;;;5011089;28;20072;-92
2023/04/10 08:56:55;;;;;;;5.80;5.30;;;;;;;;;;5009392;28;20048;-92
2023/04/10 08:59:44;;;;;;;6.07;5.47;;;;;;;;;;5010675;28;20462;-92
2023/04/10 09:02:11;;;;;;;6.07;5.47;;;;;;;;;;5023766;23;20434;-82
2023/04/10 09:04:39;;;;;;;5.95;5.40;;;;;;;;;;5015980;28;20061;-81
2023/04/10 09:07:06;;;;;;;5.78;5.28;;;;;;;;;;5015087;28;20045;-80
2023/04/10 09:09:34;;;;;;;6.53;5.90;;;;;;;;;;4998404;28;20050;-82
2023/04/10 09:12:03;;;;;;;6.55;5.95;;;;;;;;;;4998326;28;20065;-81
2023/04/10 09:14:31;;;;;;;5.60;5.10;;;;;;;;;;4997593;28;20154;-82
2023/04/10 09:17:10;;;;;;;6.20;5.35;;;;;;;;;;5014873;28;20046;-81
2023/04/10 09:19:37;;;;;;;6.28;5.60;;;;;;;;;;5015026;28;20049;-81
2023/04/10 09:22:05;;;;;;;6.28;5.78;;;;;;;;;;4997463;28;20045;-80
2023/04/10 09:24:36;;;;;;;5.43;4.82;;;;;;;;;;5013963;28;20041;-81
2023/04/10 09:27:04;;;;;;;5.43;5.03;;;;;;;;;;5044696;23;20046;-82
2023/04/10 09:29:47;;;;;;;6.15;5.55;;;;;;;;;;5046155;28;20048;-83
2023/04/10 09:32:33;;;;;;;8.50;5.50;;;;;;;;;;5063943;28;20141;-83
2023/04/10 09:35:01;;;;;;;6.00;5.40;;;;;;;;;;5042303;28;20045;-83
2023/04/10 09:37:32;;;;;;;6.63;5.93;;;;;;;;;;5042684;28;20055;-83
2023/04/10 09:39:59;;;;;;;5.93;5.38;;;;;;;;;;5060772;28;20083;-83
2023/04/10 09:42:31;;;;;;;5.82;5.32;;;;;;;;;;5044368;28;20057;-82
2023/04/10 09:44:58;;;;;;;5.55;5.03;;;;;;;;;;5042746;28;20053;-83
2023/04/10 09:47:26;;;;;;;6.00;5.50;;;;;;;;;;5044403;28;20144;-84
2023/04/10 09:49:54;;;;;;;5.47;4.97;;;;;;;;;;5060449;28;20080;-84
2023/04/10 09:52:23;;;;;;;5.60;5.10;;;;;;;;;;5041754;28;20456;-83
2023/04/10 09:54:51;;;;;;;5.20;4.80;;;;;;;;;;5041276;28;20060;-83
2023/04/10 09:57:18;;;;;;;5.40;5.00;;;;;;;;;;5058207;28;20087;-83
2023/04/10 09:59:50;;;;;;;5.03;4.63;;;;;;;;;;5040594;28;20128;-83
2023/04/10 10:02:19;;;;;;;5.53;5.03;;;;;;;;;;5039355;28;20101;-83
2023/04/10 10:04:47;;;;;;;5.25;4.75;;;;;;;;;;5056625;28;20239;-83
2023/04/10 10:07:15;;;;;;;4.40;4.10;;;;;;;;;;5055098;28;20092;-82
2023/04/10 10:09:43;;;;;;;5.05;4.65;;;;;;;;;;5055377;28;20071;-83
2023/04/10 10:12:12;;;;;;;5.57;5.07;;;;;;;;;;5037035;28;20053;-83
2023/04/10 10:14:58;;;;;;;4.90;4.50;;;;;;;;;;5037112;28;20051;-83
2023/04/10 10:17:29;;;;;;;5.70;4.38;;;;;;;;;;5036368;28;20492;-81
2023/04/10 10:20:01;;;;;;;4.45;4.05;;;;;;;;;;5037513;28;20045;-84
2023/04/10 10:22:29;;;;;;;4.20;3.85;;;;;;;;;;5055229;28;20503;-83
2023/04/10 10:24:56;;;;;;;4.35;3.95;;;;;;;;;;5037933;28;20049;-84
2023/04/10 10:27:24;;;;;;;4.53;4.13;;;;;;;;;;5054980;28;20071;-84
2023/04/10 10:29:53;;;;;;;4.55;4.18;;;;;;;;;;5036925;28;20132;-83
2023/04/10 10:32:21;;;;;;;4.45;4.05;;;;;;;;;;5045931;28;20570;-84
2023/04/10 10:34:51;;;;;;;4.55;4.15;;;;;;;;;;5045705;28;20045;-84
2023/04/10 10:37:20;;;;;;;5.38;4.88;;;;;;;;;;5063313;28;20478;-84
2023/04/10 10:40:06;;;;;;;4.68;4.30;;;;;;;;;;5044501;28;20559;-84
2023/04/10 10:42:45;;;;;;;4.40;4.10;;;;;;;;;;5042112;28;20049;-83
2023/04/10 10:45:39;;;;;;;3.97;3.67;;;;;;;;;;5037963;28;20045;-84
2023/04/10 10:48:06;;;;;;;4.32;3.95;;;;;;;;;;5034107;28;20114;-83
2023/04/10 10:50:53;;;;;;;4.00;3.70;;;;;;;;;;5038893;28;20053;-83
2023/04/10 10:53:31;;;;;;;4.43;4.03;;;;;;;;;;5040659;28;20056;-83
2023/04/10 10:55:58;;;;;;;4.78;3.97;;;;;;;;;;5042163;28;20507;-83
2023/04/10 10:58:45;;;;;;;4.60;4.25;;;;;;;;;;5043699;28;20052;-83
2023/04/10 11:01:12;;;;;;;4.50;4.20;;;;;;;;;;5059641;28;20177;-84
2023/04/10 11:03:39;;;;;;;4.28;3.95;;;;;;;;;;5041198;28;20098;-83
2023/04/10 11:06:07;;;;;;;4.43;4.07;;;;;;;;;;5041959;28;20103;-83
2023/04/10 11:08:35;;;;;;;4.72;4.28;;;;;;;;;;5041994;28;20075;-83
2023/04/10 11:11:04;;;;;;;4.47;4.07;;;;;;;;;;5047105;28;20049;-82
2023/04/10 11:13:32;;;;;;;4.55;4.25;;;;;;;;;;5048815;28;20068;-83
2023/04/10 11:16:00;;;;;;;5.70;4.90;;;;;;;;;;5066885;28;20080;-84
2023/04/10 11:18:46;;;;;;;4.72;4.32;;;;;;;;;;5052424;28;20064;-84
2023/04/10 11:21:33;;;;;;;4.70;4.30;;;;;;;;;;5047764;28;20049;-84
2023/04/10 11:24:00;;;;;;;4.60;4.30;;;;;;;;;;5045170;28;20095;-82
2023/04/10 11:26:42;;;;;;;4.13;3.83;;;;;;;;;;5051486;28;20084;-84
2023/04/10 11:29:18;;;;;;;4.35;4.05;;;;;;;;;;5048360;28;20081;-83
2023/04/10 11:31:47;;;;;;;4.47;4.10;;;;;;;;;;5047517;28;20503;-83
2023/04/10 11:34:14;;;;;;;4.07;3.78;;;;;;;;;;5064187;28;20075;-84
2023/04/10 11:36:42;;;;;;;4.30;4.00;;;;;;;;;;5045361;28;20566;-84
2023/04/10 11:39:16;;;;;;;4.35;3.95;;;;;;;;;;5043676;28;20045;-83
2023/04/10 11:41:48;;;;;;;3.95;3.65;;;;;;;;;;5042896;28;20045;-84
2023/04/10 11:44:34;;;;;;;3.67;3.40;;;;;;;;;;5042401;28;20045;-84
2023/04/10 11:47:01;;;;;;;3.95;3.70;;;;;;;;;;5042708;28;20068;-83
2023/04/10 11:49:30;;;;;;;4.18;3.78;;;;;;;;;;5041968;28;20139;-84
2023/04/10 11:51:57;;;;;;;3.45;3.25;;;;;;;;;;5061445;28;20053;-84
2023/04/10 11:54:25;;;;;;;4.30;3.90;;;;;;;;;;5042930;28;20072;-83
2023/04/10 11:57:00;;;;;;;3.80;3.50;;;;;;;;;;5044154;28;20044;-84
2023/04/10 11:59:28;;;;;;;3.30;3.10;;;;;;;;;;5045413;28;20077;-84
2023/04/10 12:02:04;;;;;;;3.58;3.30;;;;;;;;;;5046080;28;20049;-84
2023/04/10 12:04:33;;;;;;;2.75;2.60;;;;;;;;;;5050245;28;20093;-85
2023/04/10 12:07:00;;;;;;;4.57;3.00;;;;;;;;;;5049168;28;20124;-84
2023/04/10 12:09:27;;;;;;;2.40;2.30;;;;;;;;;;5040186;28;20056;-84
2023/04/10 12:11:58;;;;;;;3.35;2.80;;;;;;;;;;5040941;28;20490;-84
2023/04/10 12:14:41;;;;;;;2.83;2.63;;;;;;;;;;5050435;28;20049;-84
2023/04/10 12:17:09;;;;;;;3.92;3.10;;;;;;;;;;5068038;28;20064;-83
2023/04/10 12:19:38;;;;;;;3.83;3.45;;;;;;;;;;5046120;28;20044;-84
2023/04/10 12:22:06;;;;;;;2.85;2.70;;;;;;;;;;5044888;28;20045;-81
2023/04/10 12:24:50;;;;;;;3.40;3.20;;;;;;;;;;5045603;28;20049;-84
2023/04/10 12:27:20;;;;;;;3.17;2.90;;;;;;;;;;5045638;28;20057;-84
2023/04/10 12:29:48;;;;;;;3.10;2.90;;;;;;;;;;5045114;28;20470;-84
2023/04/10 12:32:15;;;;;;;3.00;2.80;;;;;;;;;;5045687;28;20128;-84
2023/04/10 12:34:49;;;;;;;2.90;2.70;;;;;;;;;;5060895;28;20045;-85
2023/04/10 12:37:16;;;;;;;3.42;3.22;;;;;;;;;;5060739;28;20071;-83
2023/04/10 12:39:44;;;;;;;3.25;3.05;;;;;;;;;;5044883;28;20100;-85
2023/04/10 12:42:12;;;;;;;2.83;2.72;;;;;;;;;;5044053;28;20049;-84
2023/04/10 12:44:52;;;;;;;2.92;2.72;;;;;;;;;;5047108;28;20132;-84
2023/04/10 12:47:20;;;;;;;3.50;3.30;;;;;;;;;;5052601;28;20500;-84
2023/04/10 12:50:09;;;;;;;2.88;2.67;;;;;;;;;;5039301;28;20060;-84
2023/04/10 12:52:37;;;;;;;2.90;2.70;;;;;;;;;;5039333;28;20466;-84
2023/04/10 12:55:15;;;;;;;3.38;3.08;;;;;;;;;;5038691;28;20044;-84
2023/04/10 12:57:43;;;;;;;3.30;3.10;;;;;;;;;;5037648;28;20044;-84
2023/04/10 13:00:11;;;;;;;2.53;2.42;;;;;;;;;;5040028;28;20049;-84
2023/04/10 13:02:39;;;;;;;2.65;2.55;;;;;;;;;;5041192;28;20077;-84
2023/04/10 13:05:07;;;;;;;2.42;2.33;;;;;;;;;;5041768;28;20057;-83
2023/04/10 13:07:38;;;;;;;2.97;2.78;;;;;;;;;;5041318;28;20053;-84
2023/04/10 13:10:06;;;;;;;3.03;2.83;;;;;;;;;;5041124;28;20045;-84
2023/04/10 13:12:34;;;;;;;2.63;2.45;;;;;;;;;;5040434;28;20057;-84
2023/04/10 13:15:01;;;;;;;2.70;2.50;;;;;;;;;;5041154;28;20581;-83
2023/04/10 13:17:29;;;;;;;3.20;3.00;;;;;;;;;;5058705;28;20045;-83
2023/04/10 13:19:56;;;;;;;2.67;2.53;;;;;;;;;;5040661;28;20140;-85
2023/04/10 13:22:23;;;;;;;2.65;2.55;;;;;;;;;;5040475;28;20092;-83
2023/04/10 13:24:50;;;;;;;3.38;3.03;;;;;;;;;;5040264;28;20059;-83
2023/04/10 13:27:17;;;;;;;3.75;3.13;;;;;;;;;;5062367;28;20479;-84
2023/04/10 13:29:45;;;;;;;5.25;3.10;;;;;;;;;;5065717;28;20181;-83
2023/04/10 13:32:12;;;;;;;3.58;3.38;;;;;;;;;;5045749;28;20052;-84
2023/04/10 13:34:39;;;;;;;3.50;3.20;;;;;;;;;;5047048;28;20076;-84
2023/04/10 13:37:06;;;;;;;3.92;3.00;;;;;;;;;;5047553;28;20057;-83
2023/04/10 13:39:34;;;;;;;3.45;3.25;;;;;;;;;;5047784;28;20141;-86
2023/04/10 13:42:01;;;;;;;3.55;3.35;;;;;;;;;;5064117;28;20492;-84
2023/04/10 13:44:28;;;;;;;3.35;3.15;;;;;;;;;;5060053;28;20056;-84
2023/04/10 13:46:57;;;;;;;3.63;3.42;;;;;;;;;;5057961;28;20092;-82
2023/04/10 13:49:24;;;;;;;3.60;3.40;;;;;;;;;;5041348;28;20107;-83
2023/04/10 13:51:51;;;;;;;3.60;3.40;;;;;;;;;;5061117;28;20049;-84
2023/04/10 13:54:19;;;;;;;3.33;3.13;;;;;;;;;;5044338;28;20144;-84
2023/04/10 13:56:46;;;;;;;3.83;3.45;;;;;;;;;;5046345;28;20566;-83
2023/04/10 13:59:14;;;;;;;3.60;3.30;;;;;;;;;;5046828;28;20120;-84
2023/04/10 14:01:41;;;;;;;4.15;3.85;;;;;;;;;;5048192;28;20056;-83
2023/04/10 14:04:08;;;;;;;3.88;3.58;;;;;;;;;;5048010;28;20120;-84
2023/04/10 14:06:35;;;;;;;3.30;3.10;;;;;;;;;;5046463;28;20055;-84
2023/04/10 14:09:03;;;;;;;3.58;3.38;;;;;;;;;;5047529;28;20135;-84
2023/04/10 14:11:30;;;;;;;3.72;3.42;;;;;;;;;;5047174;28;20041;-84
2023/04/10 14:13:57;;;;;;;3.47;3.28;;;;;;;;;;5046250;28;20518;-84
2023/04/10 14:16:25;;;;;;;3.20;3.00;;;;;;;;;;5065159;28;20538;-85
2023/04/10 14:18:53;;;;;;;3.22;3.05;;;;;;;;;;5048513;28;20075;-85
2023/04/10 14:21:21;;;;;;;3.40;3.20;;;;;;;;;;5064817;28;20519;-83
2023/04/10 14:23:49;;;;;;;3.75;3.45;;;;;;;;;;5049349;28;20584;-84
2023/04/10 14:26:16;;;;;;;3.28;3.13;;;;;;;;;;5064816;28;20461;-84
2023/04/10 14:28:43;;;;;;;3.13;2.92;;;;;;;;;;5044619;28;20084;-85
2023/04/10 14:31:11;;;;;;;3.30;2.95;;;;;;;;;;5063795;28;20138;-85
2023/04/10 14:33:38;;;;;;;3.40;3.20;;;;;;;;;;5044602;28;20053;-84
2023/04/10 14:36:05;;;;;;;3.50;3.30;;;;;;;;;;5043541;28;20049;-85
2023/04/10 14:38:33;;;;;;;3.20;3.00;;;;;;;;;;5043983;28;20057;-84
2023/04/10 14:41:00;;;;;;;2.90;2.78;;;;;;;;;;5061282;28;20053;-84